createdAt,value
2018-09-06T00:00:12.929Z,7.20
2018-09-06T00:02:45.759Z,7.20
2018-09-06T00:05:14.743Z,7.27
2018-09-06T00:07:43.631Z,7.40
2018-09-06T00:10:14.577Z,7.80
2018-09-06T00:12:43.467Z,7.37
2018-09-06T00:15:12.357Z,7.70
2018-09-06T00:17:49.320Z,7.47
2018-09-06T00:20:18.176Z,8.20
2018-09-06T00:22:49.097Z,7.57
2018-09-06T00:25:21.897Z,9.07
2018-09-06T00:27:50.822Z,12.20
2018-09-06T00:30:44.147Z,14.03
2018-09-06T00:33:13.033Z,16.70
2018-09-06T00:35:41.928Z,16.50
2018-09-06T00:38:11.004Z,17.03
2018-09-06T00:40:39.911Z,17.07
2018-09-06T00:43:32.444Z,16.83
2018-09-06T00:46:01.332Z,18.37
2018-09-06T00:48:30.346Z,18.40
2018-09-06T00:50:59.251Z,18.43
2018-09-06T00:53:28.241Z,19.43
2018-09-06T00:55:57.163Z,18.40
2018-09-06T00:58:26.024Z,17.77
2018-09-06T01:00:54.972Z,21.33
2018-09-06T01:03:23.883Z,21.93
2018-09-06T01:05:52.815Z,21.40
2018-09-06T01:08:22.014Z,19.63
2018-09-06T01:11:02.292Z,20.77
2018-09-06T01:13:31.180Z,20.37
2018-09-06T01:16:07.112Z,19.30
2018-09-06T01:18:36.154Z,19.73
2018-09-06T01:21:05.061Z,19.27
2018-09-06T01:23:33.990Z,19.80
2018-09-06T01:26:02.930Z,19.70
2018-09-06T01:28:31.834Z,18.43
2018-09-06T01:31:01.116Z,18.73
2018-09-06T01:33:29.986Z,18.77
2018-09-06T01:36:04.130Z,17.70
2018-09-06T01:38:33.026Z,18.83
2018-09-06T01:41:03.091Z,19.20
2018-09-06T01:43:31.965Z,18.30
2018-09-06T01:46:00.849Z,18.77
2018-09-06T01:48:29.716Z,18.20
2018-09-06T01:50:58.688Z,16.47
2018-09-06T01:53:28.154Z,17.97
2018-09-06T01:55:57.542Z,19.07
2018-09-06T02:01:22.004Z,18.50
2018-09-06T02:03:51.176Z,18.43
2018-09-06T02:06:22.057Z,19.07
2018-09-06T02:08:50.952Z,18.37
2018-09-06T02:17:15.206Z,17.00
2018-09-06T02:19:44.118Z,17.93
2018-09-06T02:22:13.060Z,17.77
2018-09-06T02:27:41.802Z,17.63
2018-09-06T02:30:10.689Z,18.17
2018-09-06T02:32:39.562Z,19.87
2018-09-06T02:35:08.477Z,19.77
2018-09-06T02:37:37.755Z,18.57
2018-09-06T02:40:07.449Z,22.03
2018-09-06T02:42:36.337Z,22.43
2018-09-06T02:45:05.331Z,23.90
2018-09-06T02:47:50.070Z,25.07
2018-09-06T02:50:24.409Z,24.97
2018-09-06T02:52:57.350Z,28.90
2018-09-06T02:55:28.719Z,28.57
2018-09-06T02:57:58.307Z,29.07
2018-09-06T03:00:31.902Z,29.13
2018-09-06T03:03:00.964Z,30.93
2018-09-06T03:05:37.576Z,32.70
2018-09-06T03:08:06.457Z,31.27
2018-09-06T03:10:38.960Z,31.83
2018-09-06T03:13:07.885Z,32.07
2018-09-06T03:15:46.663Z,31.13
2018-09-06T03:18:15.545Z,32.83
2018-09-06T03:20:44.601Z,32.07
2018-09-06T03:23:19.140Z,34.33
2018-09-06T03:25:48.147Z,33.33
2018-09-06T03:28:17.061Z,33.10
2018-09-06T03:30:49.846Z,33.10
2018-09-06T03:33:18.776Z,33.17
2018-09-06T03:36:09.288Z,32.90
2018-09-06T03:38:38.195Z,34.13
2018-09-06T03:41:14.055Z,34.97
2018-09-06T03:43:50.325Z,33.47
2018-09-06T03:49:25.764Z,35.67
2018-09-06T03:51:54.788Z,34.47
2018-09-06T03:54:27.557Z,33.53
2018-09-06T03:57:07.964Z,34.57
2018-09-06T03:59:50.294Z,32.53
2018-09-06T04:02:22.694Z,30.77
2018-09-06T04:07:55.400Z,31.43
2018-09-06T04:10:24.388Z,32.23
2018-09-06T04:13:09.728Z,31.63
2018-09-06T04:15:38.642Z,32.67
2018-09-06T04:18:15.851Z,32.57
2018-09-06T04:20:51.631Z,32.40
2018-09-06T04:23:25.046Z,34.17
2018-09-06T04:25:54.018Z,35.97
2018-09-06T04:28:26.762Z,32.70
2018-09-06T04:30:55.644Z,33.87
2018-09-06T04:33:28.343Z,35.23
2018-09-06T04:35:59.356Z,33.57
2018-09-06T04:38:28.301Z,34.27
2018-09-06T04:41:09.929Z,33.83
2018-09-06T04:43:45.437Z,33.73
2018-09-06T04:46:14.268Z,34.93
2018-09-06T04:48:43.264Z,35.40
2018-09-06T04:51:12.182Z,34.07
2018-09-06T04:53:41.161Z,33.43
2018-09-06T04:56:20.763Z,35.77
2018-09-06T04:58:49.737Z,34.80
2018-09-06T05:01:32.001Z,33.83
2018-09-06T05:04:07.259Z,33.80
2018-09-06T05:06:42.807Z,35.20
2018-09-06T05:09:17.205Z,36.20
2018-09-06T05:11:50.025Z,32.90
2018-09-06T05:14:23.245Z,34.83
2018-09-06T05:16:56.008Z,32.57
2018-09-06T05:19:48.615Z,33.80
2018-09-06T05:22:18.600Z,33.77
2018-09-06T05:24:51.007Z,33.93
2018-09-06T05:27:43.050Z,34.03
2018-09-06T05:30:25.602Z,34.07
2018-09-06T05:33:04.929Z,34.90
2018-09-06T05:35:38.070Z,34.70
2018-09-06T05:38:09.915Z,34.60
2018-09-06T05:40:42.133Z,34.70
2018-09-06T05:43:11.135Z,33.83
2018-09-06T05:48:35.769Z,33.37
2018-09-06T05:51:04.755Z,33.57
2018-09-06T05:53:33.765Z,32.27
2018-09-06T05:56:15.564Z,31.93
2018-09-06T05:58:56.481Z,33.60
2018-09-06T06:01:25.412Z,33.17
2018-09-06T06:03:54.277Z,32.23
2018-09-06T06:06:23.224Z,32.90
2018-09-06T06:08:52.817Z,32.57
2018-09-06T06:11:21.976Z,31.80
2018-09-06T06:13:50.887Z,31.00
2018-09-06T06:16:23.352Z,32.23
2018-09-06T06:19:11.441Z,31.63
2018-09-06T06:21:40.345Z,31.67
2018-09-06T06:24:09.236Z,31.90
2018-09-06T06:29:39.430Z,30.67
2018-09-06T06:32:08.415Z,31.33
2018-09-06T06:34:43.340Z,31.33
2018-09-06T06:37:12.299Z,29.27
2018-09-06T06:39:41.255Z,31.57
2018-09-06T06:42:10.153Z,31.57
2018-09-06T06:44:39.081Z,30.57
2018-09-06T06:47:08.098Z,30.87
2018-09-06T06:49:37.104Z,30.23
2018-09-06T06:52:06.263Z,29.97
2018-09-06T06:54:36.170Z,32.20
2018-09-06T06:57:05.099Z,30.70
2018-09-06T06:59:34.050Z,29.83
2018-09-06T07:02:10.748Z,31.00
2018-09-06T07:04:39.941Z,30.37
2018-09-06T07:07:08.818Z,30.77
2018-09-06T07:09:37.803Z,30.03
2018-09-06T07:12:06.891Z,31.47
2018-09-06T07:14:35.851Z,31.60
2018-09-06T07:17:04.772Z,32.33
2018-09-06T07:19:50.573Z,31.93
2018-09-06T07:22:36.125Z,33.03
2018-09-06T07:25:05.111Z,32.13
2018-09-06T07:27:34.041Z,32.13
2018-09-06T07:30:03.001Z,31.80
2018-09-06T07:32:31.852Z,31.47
2018-09-06T07:35:00.741Z,32.50
2018-09-06T07:37:35.337Z,32.60
2018-09-06T07:40:28.592Z,30.77
2018-09-06T07:43:03.344Z,31.03
2018-09-06T07:45:32.237Z,30.67
2018-09-06T07:48:19.925Z,32.10
2018-09-06T07:50:48.818Z,32.03
2018-09-06T07:53:17.712Z,32.37
2018-09-06T07:55:55.111Z,31.67
2018-09-06T07:58:24.012Z,32.33
2018-09-06T08:00:52.874Z,32.17
2018-09-06T08:03:27.501Z,31.43
2018-09-06T08:06:01.983Z,32.10
2018-09-06T08:08:31.118Z,33.07
2018-09-06T08:11:04.133Z,32.63
2018-09-06T08:13:34.097Z,32.13
2018-09-06T08:16:09.444Z,33.00
2018-09-06T08:18:46.104Z,33.37
2018-09-06T08:21:16.002Z,31.97
2018-09-06T08:23:44.926Z,32.63
2018-09-06T08:26:13.961Z,33.53
2018-09-06T08:28:42.858Z,34.37
2018-09-06T08:31:17.833Z,33.83
2018-09-06T08:33:46.727Z,33.67
2018-09-06T08:36:15.887Z,33.37
2018-09-06T08:38:48.707Z,34.60
2018-09-06T08:41:31.889Z,35.17
2018-09-06T08:44:04.897Z,33.37
2018-09-06T08:46:33.891Z,34.87
2018-09-06T08:49:09.029Z,33.23
2018-09-06T08:51:39.975Z,32.40
2018-09-06T08:54:10.886Z,32.67
2018-09-06T08:56:39.804Z,35.07
2018-09-06T08:59:08.717Z,33.90
2018-09-06T09:01:40.096Z,34.53
2018-09-06T09:04:12.898Z,33.90
2018-09-06T09:06:42.845Z,33.13
2018-09-06T09:09:13.674Z,34.70
2018-09-06T09:11:42.592Z,34.23
2018-09-06T09:14:11.541Z,34.57
2018-09-06T09:16:40.473Z,33.67
2018-09-06T09:19:09.612Z,34.87
2018-09-06T09:21:39.723Z,36.23
2018-09-06T09:24:12.386Z,34.30
2018-09-06T09:26:48.627Z,33.93
2018-09-06T09:29:21.028Z,33.67
2018-09-06T09:32:10.727Z,32.63
2018-09-06T09:34:49.900Z,34.50
2018-09-06T09:37:29.027Z,32.37
2018-09-06T09:39:57.909Z,34.43
2018-09-06T09:42:26.986Z,34.53
2018-09-06T09:44:55.909Z,33.87
2018-09-06T09:49:52.883Z,34.70
2018-09-06T09:52:22.274Z,34.87
2018-09-06T09:54:51.317Z,34.27
2018-09-06T09:57:21.261Z,33.37
2018-09-06T09:59:52.217Z,31.57
2018-09-06T10:02:28.675Z,33.23
2018-09-06T10:05:07.490Z,32.20
2018-09-06T10:07:53.688Z,32.63
2018-09-06T10:10:30.782Z,32.83
2018-09-06T10:16:01.553Z,32.47
2018-09-06T10:18:40.409Z,33.37
2018-09-06T10:21:12.635Z,33.37
2018-09-06T10:23:41.829Z,31.10
2018-09-06T10:26:11.774Z,32.20
2018-09-06T10:29:03.442Z,32.77
2018-09-06T10:31:37.089Z,31.30
2018-09-06T10:34:07.152Z,31.43
2018-09-06T10:36:36.059Z,30.80
2018-09-06T10:39:07.363Z,31.87
2018-09-06T10:41:36.332Z,31.53
2018-09-06T10:44:05.320Z,29.87
2018-09-06T10:46:34.227Z,32.37
2018-09-06T10:49:23.551Z,31.53
2018-09-06T11:00:32.869Z,34.30
2018-09-06T11:03:08.809Z,34.23
2018-09-06T11:05:38.002Z,34.00
2018-09-06T11:08:06.926Z,40.07
2018-09-06T11:10:35.815Z,42.17
2018-09-06T11:13:08.476Z,43.20
2018-09-06T11:15:37.387Z,44.37
2018-09-06T11:18:07.492Z,46.00
2018-09-06T11:20:36.335Z,45.67
2018-09-06T11:23:05.271Z,43.70
2018-09-06T11:25:44.599Z,45.23
2018-09-06T11:28:30.707Z,46.43
2018-09-06T11:30:59.876Z,44.60
2018-09-06T11:33:32.407Z,46.07
2018-09-06T11:36:01.330Z,45.00
2018-09-06T11:38:31.274Z,45.93
2018-09-06T11:41:05.901Z,46.40
2018-09-06T11:46:32.276Z,44.87
2018-09-06T11:49:01.269Z,47.20
2018-09-06T11:51:32.304Z,46.73
2018-09-06T11:54:02.392Z,46.63
2018-09-06T11:56:38.186Z,46.93
2018-09-06T11:59:31.430Z,47.67
2018-09-06T12:02:00.421Z,45.93
2018-09-06T12:04:31.428Z,46.47
2018-09-06T12:07:00.344Z,47.47
2018-09-06T12:09:29.378Z,47.50
2018-09-06T12:11:58.261Z,49.50
2018-09-06T12:14:27.153Z,47.20
2018-09-06T12:17:15.233Z,46.67
2018-09-06T12:19:44.151Z,46.10
2018-09-06T12:22:14.085Z,45.87
2018-09-06T12:24:43.283Z,47.20
2018-09-06T12:27:12.679Z,49.13
2018-09-06T12:29:45.671Z,48.33
2018-09-06T12:32:14.595Z,47.57
2018-09-06T12:34:43.657Z,46.00
2018-09-06T12:37:13.830Z,45.70
2018-09-06T12:39:44.011Z,46.77
2018-09-06T12:42:14.082Z,45.33
2018-09-06T12:44:43.274Z,45.20
2018-09-06T12:47:12.311Z,46.87
2018-09-06T12:49:42.471Z,45.27
2018-09-06T12:55:14.598Z,49.87
2018-09-06T12:57:48.134Z,48.80
2018-09-06T13:00:17.069Z,51.60
2018-09-06T13:02:45.982Z,49.97
2018-09-06T13:05:14.897Z,46.97
2018-09-06T13:07:56.662Z,46.83
2018-09-06T13:10:25.551Z,44.70
2018-09-06T13:12:54.465Z,42.17
2018-09-06T13:15:26.556Z,45.03
2018-09-06T13:17:55.508Z,46.03
2018-09-06T13:20:24.414Z,47.03
2018-09-06T13:23:05.639Z,43.87
2018-09-06T13:25:34.634Z,46.07
2018-09-06T13:28:03.571Z,44.73
2018-09-06T13:30:32.568Z,40.90
2018-09-06T13:33:01.564Z,42.80
2018-09-06T13:35:30.618Z,44.27
2018-09-06T13:38:05.051Z,40.10
2018-09-06T13:40:44.919Z,35.77
2018-09-06T13:43:30.801Z,36.77
2018-09-06T13:48:52.845Z,37.10
2018-09-06T13:51:21.880Z,34.73
2018-09-06T13:53:54.113Z,38.70
2018-09-06T13:56:26.154Z,34.67
2018-09-06T13:58:59.802Z,34.37
2018-09-06T14:01:29.870Z,37.23
2018-09-06T14:04:00.000Z,34.50
2018-09-06T14:06:30.980Z,34.87
2018-09-06T14:09:01.976Z,33.63
2018-09-06T14:11:30.887Z,37.40
2018-09-06T14:13:59.929Z,35.47
2018-09-06T14:16:32.413Z,34.10
2018-09-06T14:19:01.381Z,36.17
2018-09-06T14:21:30.379Z,35.07
2018-09-06T14:23:59.391Z,34.83
2018-09-06T14:26:34.175Z,38.30
2018-09-06T14:29:07.180Z,35.50
2018-09-06T14:31:42.096Z,36.00
2018-09-06T14:34:12.001Z,39.47
2018-09-06T14:36:46.869Z,38.33
2018-09-06T14:39:19.148Z,41.43
2018-09-06T14:41:55.553Z,42.87
2018-09-06T14:44:26.712Z,42.47
2018-09-06T14:46:59.642Z,41.50
2018-09-06T14:49:29.514Z,46.17
2018-09-06T14:51:59.458Z,44.57
2018-09-06T14:54:29.408Z,52.93
2018-09-06T14:56:58.628Z,47.23
2018-09-06T14:59:27.847Z,49.90
2018-09-06T15:01:56.762Z,51.60
2018-09-06T15:04:27.736Z,48.63
2018-09-06T15:07:01.432Z,51.77
2018-09-06T15:09:30.415Z,49.97
2018-09-06T15:12:00.450Z,52.07
2018-09-06T15:14:33.112Z,51.47
2018-09-06T15:17:04.435Z,51.53
2018-09-06T15:19:34.791Z,51.47
2018-09-06T15:22:04.215Z,54.40
2018-09-06T15:24:35.503Z,51.33
2018-09-06T15:27:05.228Z,54.70
2018-09-06T15:29:35.567Z,52.57
2018-09-06T15:32:18.279Z,52.07
2018-09-06T15:34:47.315Z,51.67
2018-09-06T15:37:22.096Z,53.43
2018-09-06T15:39:53.053Z,51.67
2018-09-06T15:42:22.044Z,52.80
2018-09-06T15:44:54.973Z,50.97
2018-09-06T15:47:36.443Z,51.37
2018-09-06T15:50:08.938Z,53.13
2018-09-06T15:52:38.008Z,52.70
2018-09-06T15:55:07.383Z,54.03
2018-09-06T15:57:39.085Z,55.47
2018-09-06T16:00:08.476Z,56.67
2018-09-06T16:02:37.577Z,58.00
2018-09-06T16:05:06.561Z,54.60
2018-09-06T16:07:35.569Z,54.50
2018-09-06T16:10:04.530Z,56.57
2018-09-06T16:12:35.952Z,57.13
2018-09-06T16:15:07.041Z,54.93
2018-09-06T16:17:41.081Z,56.33
2018-09-06T16:20:18.397Z,54.73
2018-09-06T16:22:47.433Z,51.17
2018-09-06T16:25:22.500Z,46.40
2018-09-06T16:27:57.186Z,44.83
2018-09-06T16:30:29.614Z,42.33
2018-09-06T16:32:58.707Z,39.63
2018-09-06T16:35:28.848Z,39.10
2018-09-06T16:38:02.074Z,37.97
2018-09-06T16:40:31.099Z,40.03
2018-09-06T16:43:08.576Z,36.50
2018-09-06T16:45:40.705Z,38.57
2018-09-06T16:48:14.618Z,37.63
2018-09-06T16:50:48.764Z,36.97
2018-09-06T16:53:17.719Z,38.53
2018-09-06T16:55:49.757Z,40.67
2018-09-06T16:58:22.899Z,41.47
2018-09-06T17:00:53.993Z,42.17
2018-09-06T17:03:23.055Z,40.47
2018-09-06T17:05:53.566Z,38.10
2018-09-06T17:08:22.575Z,38.93
2018-09-06T17:10:51.699Z,34.73
2018-09-06T17:13:26.076Z,35.20
2018-09-06T17:15:59.336Z,35.97
2018-09-06T17:18:29.268Z,32.70
2018-09-06T17:21:03.411Z,32.00
2018-09-06T17:23:33.422Z,29.83
2018-09-06T17:26:05.974Z,29.47
2018-09-06T17:28:34.936Z,29.23
2018-09-06T17:31:05.332Z,28.40
2018-09-06T17:33:41.005Z,28.60
2018-09-06T17:36:30.405Z,29.67
2018-09-06T17:38:59.860Z,27.30
2018-09-06T17:41:29.181Z,26.70
2018-09-06T17:43:58.707Z,27.33
2018-09-06T17:46:29.311Z,24.20
2018-09-06T17:49:00.865Z,24.17
2018-09-06T17:51:34.501Z,23.33
2018-09-06T17:54:06.269Z,21.83
2018-09-06T17:56:40.353Z,18.80
2018-09-06T17:59:09.690Z,16.10
2018-09-06T18:01:42.320Z,14.70
2018-09-06T18:04:13.668Z,13.63
2018-09-06T18:06:43.071Z,13.93
2018-09-06T18:09:18.165Z,12.53
2018-09-06T18:11:47.728Z,11.77
2018-09-06T18:14:17.206Z,12.80
2018-09-06T18:16:46.234Z,13.13
2018-09-06T18:19:19.443Z,12.77
2018-09-06T18:21:59.153Z,12.60
2018-09-06T18:24:29.142Z,12.33
2018-09-06T18:26:58.113Z,12.67
2018-09-06T18:29:27.967Z,12.23
2018-09-06T18:31:58.130Z,14.07
2018-09-06T18:34:27.611Z,13.13
2018-09-06T18:36:57.385Z,13.00
2018-09-06T18:39:26.359Z,12.60
2018-09-06T18:41:55.307Z,12.07
2018-09-06T18:44:24.343Z,11.17
2018-09-06T18:46:56.452Z,10.83
2018-09-06T18:49:26.388Z,10.53
2018-09-06T18:51:56.312Z,10.23
2018-09-06T18:54:25.334Z,9.47
2018-09-06T18:56:57.644Z,9.93
2018-09-06T18:59:34.373Z,9.70
2018-09-06T19:02:04.390Z,9.80
2018-09-06T19:04:33.668Z,10.17
2018-09-06T19:07:05.007Z,9.77
2018-09-06T19:09:34.587Z,10.53
2018-09-06T19:12:03.873Z,10.80
2018-09-06T19:14:38.104Z,11.10
2018-09-06T19:17:09.428Z,10.50
2018-09-06T19:19:38.520Z,9.33
2018-09-06T19:22:12.146Z,8.23
2018-09-06T19:27:34.331Z,7.43
2018-09-06T19:30:05.296Z,7.83
2018-09-06T19:32:36.300Z,7.33
2018-09-06T19:35:28.296Z,7.80
2018-09-06T19:38:14.930Z,7.50
2018-09-06T19:41:01.740Z,7.70
2018-09-06T19:43:32.674Z,6.37
2018-09-06T19:46:01.723Z,7.30
2018-09-06T19:48:33.755Z,7.27
2018-09-06T19:51:02.952Z,7.73
2018-09-06T19:53:35.515Z,7.30
2018-09-06T19:56:06.796Z,7.00
2018-09-06T19:58:39.075Z,7.77
2018-09-06T20:01:10.079Z,7.30
2018-09-06T20:03:39.104Z,7.70
2018-09-06T20:06:13.113Z,7.40
2018-09-06T20:08:44.087Z,8.30
2018-09-06T20:11:20.030Z,7.67
2018-09-06T20:13:49.144Z,8.30
2018-09-06T20:16:18.220Z,8.97
2018-09-06T20:18:53.792Z,8.23
2018-09-06T20:21:28.145Z,8.33
2018-09-06T20:23:57.167Z,9.30
2018-09-06T20:26:38.465Z,9.00
2018-09-06T20:29:07.634Z,8.77
2018-09-06T20:31:42.159Z,9.43
2018-09-06T20:34:14.386Z,9.47
2018-09-06T20:36:57.970Z,9.73
2018-09-06T20:39:47.069Z,8.57
2018-09-06T20:42:19.846Z,9.37
2018-09-06T20:44:48.766Z,9.70
2018-09-06T20:47:17.810Z,10.73
2018-09-06T20:49:57.329Z,10.77
2018-09-06T20:52:29.661Z,11.00
2018-09-06T20:55:00.833Z,11.47
2018-09-06T20:57:41.757Z,10.17
2018-09-06T21:00:15.001Z,10.90
2018-09-06T21:02:59.588Z,11.00
2018-09-06T21:05:38.118Z,11.50
2018-09-06T21:08:12.236Z,11.53
2018-09-06T21:10:50.834Z,11.10
2018-09-06T21:13:20.702Z,11.30
2018-09-06T21:15:49.842Z,10.77
2018-09-06T21:18:25.755Z,12.30
2018-09-06T21:20:56.945Z,11.70
2018-09-06T21:23:26.065Z,11.80
2018-09-06T21:28:50.225Z,11.97
2018-09-06T21:31:19.275Z,12.57
2018-09-06T21:33:48.292Z,12.63
2018-09-06T21:36:21.487Z,12.77
2018-09-06T21:39:00.668Z,13.57
2018-09-06T21:41:43.204Z,13.07
2018-09-06T21:44:19.390Z,14.07
2018-09-06T21:46:48.525Z,13.90
2018-09-06T21:49:17.496Z,14.87
2018-09-06T21:52:06.821Z,16.13
2018-09-06T21:54:46.146Z,15.93
2018-09-06T21:57:21.016Z,15.73
2018-09-06T21:59:51.922Z,15.10
2018-09-06T22:02:26.240Z,15.47
2018-09-06T22:04:56.206Z,15.43
2018-09-06T22:07:34.756Z,15.43
2018-09-06T22:10:08.279Z,14.87
2018-09-06T22:12:39.463Z,15.83
2018-09-06T22:15:14.568Z,15.77
2018-09-06T22:17:43.485Z,16.17
2018-09-06T22:20:17.263Z,16.17
2018-09-06T22:22:57.376Z,16.73
2018-09-06T22:25:26.590Z,16.30
2018-09-06T22:27:55.482Z,16.73
2018-09-06T22:30:35.800Z,16.13
2018-09-06T22:33:05.030Z,15.93
2018-09-06T22:35:34.265Z,16.53
2018-09-06T22:38:09.359Z,17.77
2018-09-06T22:40:50.431Z,16.93
2018-09-06T22:43:23.302Z,17.37
2018-09-06T22:45:52.265Z,17.37
2018-09-06T22:48:21.266Z,18.07
2018-09-06T22:51:02.850Z,16.53
2018-09-06T22:53:32.841Z,16.77
2018-09-06T22:56:05.679Z,18.40
2018-09-06T22:58:34.530Z,17.87
2018-09-06T23:01:03.424Z,17.47
2018-09-06T23:03:38.041Z,18.63
2018-09-06T23:06:07.154Z,17.93
2018-09-06T23:08:36.217Z,18.43
2018-09-06T23:11:05.156Z,18.17
2018-09-06T23:13:34.076Z,17.90
2018-09-06T23:16:02.976Z,17.57
2018-09-06T23:18:32.040Z,19.30
2018-09-06T23:21:01.088Z,16.50
2018-09-06T23:23:30.068Z,17.10
2018-09-06T23:26:04.645Z,16.53
2018-09-06T23:28:33.572Z,15.87
2018-09-06T23:31:02.450Z,16.37
2018-09-06T23:33:42.307Z,17.20
2018-09-06T23:36:11.196Z,17.77
2018-09-06T23:38:40.078Z,16.10
2018-09-06T23:41:08.980Z,16.13
2018-09-06T23:43:37.889Z,16.03
2018-09-06T23:46:08.872Z,16.40
2018-09-06T23:48:37.882Z,16.97
2018-09-06T23:51:06.784Z,16.87
2018-09-06T23:53:42.933Z,16.70
2018-09-06T23:56:11.842Z,16.70
2018-09-06T23:58:40.706Z,16.27
